createdAt,value
2022-10-01T00:01:18.255Z,11.69
2022-10-01T00:03:45.117Z,11.71
2022-10-01T00:06:12.908Z,11.75
2022-10-01T00:08:41.215Z,11.71
2022-10-01T00:11:14.087Z,11.72
2022-10-01T00:13:43.013Z,11.73
2022-10-01T00:16:12.449Z,11.68
2022-10-01T00:18:40.958Z,11.64
2022-10-01T00:21:13.598Z,11.61
2022-10-01T00:23:40.617Z,11.57
2022-10-01T00:26:21.762Z,11.60
2022-10-01T00:28:53.626Z,11.59
2022-10-01T00:31:20.426Z,11.54
2022-10-01T00:33:47.466Z,11.57
2022-10-01T00:36:14.151Z,11.59
2022-10-01T00:38:40.969Z,11.53
2022-10-01T00:41:08.575Z,11.48
2022-10-01T00:43:40.253Z,11.59
2022-10-01T00:46:15.747Z,11.51
2022-10-01T00:48:59.703Z,11.56
2022-10-01T00:51:29.990Z,11.61
2022-10-01T00:54:04.793Z,11.63
2022-10-01T00:56:32.141Z,11.65
2022-10-01T00:59:00.109Z,11.67
2022-10-01T01:01:26.663Z,11.68
2022-10-01T01:03:53.053Z,11.63
2022-10-01T01:06:19.511Z,11.67
2022-10-01T01:08:45.890Z,11.58
2022-10-01T01:11:23.054Z,11.54
2022-10-01T01:14:01.353Z,11.55
2022-10-01T01:16:55.011Z,11.55
2022-10-01T01:19:37.804Z,11.57
2022-10-01T01:22:08.268Z,11.55
2022-10-01T01:24:40.493Z,11.55
2022-10-01T01:27:16.214Z,11.53
2022-10-01T01:30:10.347Z,11.59
2022-10-01T01:32:59.155Z,11.62
2022-10-01T01:35:44.477Z,11.67
2022-10-01T01:38:17.483Z,11.68
2022-10-01T01:40:51.269Z,11.70
2022-10-01T01:43:24.035Z,11.69
2022-10-01T01:45:55.040Z,11.68
2022-10-01T01:48:24.199Z,11.62
2022-10-01T01:51:06.653Z,11.60
2022-10-01T01:53:33.956Z,11.67
2022-10-01T01:56:00.486Z,11.69
2022-10-01T01:58:28.118Z,11.72
2022-10-01T02:00:54.925Z,11.74
2022-10-01T02:03:25.783Z,11.72
2022-10-01T02:06:27.241Z,11.69
2022-10-01T02:09:08.608Z,11.70
2022-10-01T02:11:44.315Z,11.72
2022-10-01T02:14:36.661Z,11.76
2022-10-01T02:17:17.903Z,11.74
2022-10-01T02:19:56.015Z,11.75
2022-10-01T02:22:32.521Z,11.78
2022-10-01T02:25:03.789Z,11.80
2022-10-01T02:27:33.199Z,11.86
2022-10-01T02:30:07.772Z,11.86
2022-10-01T02:32:37.829Z,11.86
2022-10-01T02:35:07.360Z,11.90
2022-10-01T02:37:36.754Z,11.88
2022-10-01T02:40:07.871Z,11.92
2022-10-01T02:42:36.913Z,11.92
2022-10-01T02:45:05.258Z,11.90
2022-10-01T02:47:41.583Z,11.88
2022-10-01T02:50:09.370Z,11.93
2022-10-01T02:52:45.550Z,11.98
2022-10-01T02:55:17.685Z,11.96
2022-10-01T02:57:44.180Z,11.93
2022-10-01T03:00:13.447Z,11.96
2022-10-01T03:02:39.832Z,11.94
2022-10-01T03:05:06.777Z,11.96
2022-10-01T03:07:37.909Z,11.98
2022-10-01T03:10:05.553Z,12.02
2022-10-01T03:12:32.121Z,11.97
2022-10-01T03:14:58.962Z,11.99
2022-10-01T03:17:25.342Z,11.98
2022-10-01T03:19:51.888Z,12.04
2022-10-01T03:22:24.474Z,12.07
2022-10-01T03:24:52.262Z,12.06
2022-10-01T03:27:19.412Z,12.07
2022-10-01T03:29:45.973Z,12.04
2022-10-01T03:32:13.638Z,12.10
2022-10-01T03:34:40.310Z,12.08
2022-10-01T03:37:07.048Z,12.10
2022-10-01T03:39:33.818Z,12.14
2022-10-01T03:42:00.645Z,12.19
2022-10-01T03:44:28.289Z,12.24
2022-10-01T03:46:55.246Z,12.23
2022-10-01T03:49:21.588Z,12.24
2022-10-01T03:51:47.965Z,12.27
2022-10-01T03:54:14.498Z,12.26
2022-10-01T03:56:42.514Z,12.26
2022-10-01T03:59:11.005Z,12.29
2022-10-01T04:01:38.878Z,12.27
2022-10-01T04:04:06.288Z,12.32
2022-10-01T04:06:32.862Z,12.35
2022-10-01T04:08:59.270Z,12.42
2022-10-01T04:11:25.867Z,12.45
2022-10-01T04:13:52.350Z,12.46
2022-10-01T04:16:18.878Z,12.45
2022-10-01T04:18:45.264Z,12.44
2022-10-01T04:21:12.728Z,12.43
2022-10-01T04:23:39.246Z,12.44
2022-10-01T04:26:05.747Z,12.47
2022-10-01T04:28:32.295Z,12.52
2022-10-01T04:31:17.727Z,12.56
2022-10-01T04:33:44.518Z,12.55
2022-10-01T04:36:11.017Z,12.59
2022-10-01T04:38:37.441Z,12.60
2022-10-01T04:41:04.101Z,12.61
2022-10-01T04:43:30.449Z,12.59
2022-10-01T04:45:56.854Z,12.60
2022-10-01T04:48:24.013Z,12.65
2022-10-01T04:50:50.362Z,12.60
2022-10-01T04:53:16.704Z,12.62
2022-10-01T04:55:43.645Z,12.66
2022-10-01T04:58:10.468Z,12.67
2022-10-01T05:00:36.907Z,12.68
2022-10-01T05:03:03.336Z,12.70
2022-10-01T05:05:32.821Z,12.70
2022-10-01T05:07:59.184Z,12.70
2022-10-01T05:10:26.053Z,12.71
2022-10-01T05:12:52.485Z,12.71
2022-10-01T05:15:19.372Z,12.72
2022-10-01T05:17:46.885Z,12.71
2022-10-01T05:20:20.538Z,12.71
2022-10-01T05:22:47.462Z,12.71
2022-10-01T05:25:14.280Z,12.71
2022-10-01T05:27:40.978Z,12.71
2022-10-01T05:30:11.888Z,12.72
2022-10-01T05:32:39.047Z,12.71
2022-10-01T05:35:07.198Z,12.72
2022-10-01T05:37:34.567Z,12.73
2022-10-01T05:40:01.595Z,12.70
2022-10-01T05:42:27.929Z,12.70
2022-10-01T05:44:54.274Z,12.71
2022-10-01T05:47:20.884Z,12.71
2022-10-01T05:49:47.239Z,12.71
2022-10-01T05:52:16.265Z,12.72
2022-10-01T05:54:42.693Z,12.76
2022-10-01T05:57:09.394Z,12.76
2022-10-01T05:59:35.979Z,12.74
2022-10-01T06:02:03.816Z,12.75
2022-10-01T06:04:30.401Z,12.77
2022-10-01T06:06:56.767Z,12.77
2022-10-01T06:09:23.194Z,12.79
2022-10-01T06:11:49.942Z,12.78
2022-10-01T06:14:17.220Z,12.80
2022-10-01T06:16:43.699Z,12.82
2022-10-01T06:19:10.240Z,12.83
2022-10-01T06:21:37.246Z,12.89
2022-10-01T06:24:04.044Z,12.92
2022-10-01T06:26:31.087Z,12.96
2022-10-01T06:28:57.582Z,12.98
2022-10-01T06:31:24.063Z,13.01
2022-10-01T06:33:50.470Z,13.04
2022-10-01T06:36:16.898Z,13.05
2022-10-01T06:38:43.284Z,13.08
2022-10-01T06:41:09.896Z,13.15
2022-10-01T06:43:36.258Z,13.19
2022-10-01T06:46:04.656Z,13.22
2022-10-01T06:48:32.263Z,13.24
2022-10-01T06:50:59.512Z,13.27
2022-10-01T06:53:27.674Z,13.31
2022-10-01T06:55:55.152Z,13.34
2022-10-01T06:58:26.129Z,13.37
2022-10-01T07:01:01.867Z,13.38
2022-10-01T07:03:28.982Z,13.38
2022-10-01T07:06:02.087Z,13.37
2022-10-01T07:08:28.490Z,13.38
2022-10-01T07:10:59.740Z,13.35
2022-10-01T07:13:26.121Z,13.32
2022-10-01T07:15:52.479Z,13.28
2022-10-01T07:18:18.988Z,13.27
2022-10-01T07:20:45.365Z,13.22
2022-10-01T07:23:13.437Z,13.22
2022-10-01T07:25:40.824Z,13.25
2022-10-01T07:28:16.087Z,13.27
2022-10-01T07:30:44.133Z,13.26
2022-10-01T07:33:10.505Z,13.27
2022-10-01T07:35:38.120Z,13.30
2022-10-01T07:38:06.413Z,13.34
2022-10-01T07:40:32.945Z,13.36
2022-10-01T07:42:59.330Z,13.43
2022-10-01T07:45:26.750Z,13.49
2022-10-01T07:48:04.170Z,13.54
2022-10-01T07:50:30.722Z,13.58
2022-10-01T07:52:58.685Z,13.60
2022-10-01T07:55:27.183Z,13.61
2022-10-01T07:57:57.994Z,13.63
2022-10-01T08:00:28.426Z,13.64
2022-10-01T08:02:56.150Z,13.64
2022-10-01T08:05:25.654Z,13.61
2022-10-01T08:07:52.277Z,13.61
2022-10-01T08:10:20.239Z,13.67
2022-10-01T08:12:46.656Z,13.75
2022-10-01T08:15:15.885Z,13.81
2022-10-01T08:17:43.081Z,13.80
2022-10-01T08:20:12.333Z,13.82
2022-10-01T08:22:42.111Z,13.82
2022-10-01T08:25:09.777Z,13.79
2022-10-01T08:27:36.734Z,13.80
2022-10-01T08:30:03.670Z,13.84
2022-10-01T08:32:31.057Z,13.89
2022-10-01T08:34:59.768Z,13.96
2022-10-01T08:37:27.702Z,14.04
2022-10-01T08:39:55.344Z,14.14
2022-10-01T08:42:59.869Z,14.21
2022-10-01T08:45:34.808Z,14.32
2022-10-01T08:48:31.644Z,14.38
2022-10-01T08:51:05.986Z,14.30
2022-10-01T08:53:45.485Z,14.28
2022-10-01T08:56:35.138Z,14.35
2022-10-01T08:59:27.215Z,14.41
2022-10-01T09:01:55.733Z,14.45
2022-10-01T09:04:22.987Z,14.58
2022-10-01T09:07:04.201Z,14.61
2022-10-01T09:09:49.910Z,14.57
2022-10-01T09:12:33.841Z,14.43
2022-10-01T09:15:06.738Z,14.45
2022-10-01T09:17:55.034Z,14.55
2022-10-01T09:20:34.942Z,14.61
2022-10-01T09:23:04.056Z,14.64
2022-10-01T09:25:32.107Z,14.71
2022-10-01T09:28:07.018Z,14.73
2022-10-01T09:30:35.413Z,14.83
2022-10-01T09:33:23.201Z,14.73
2022-10-01T09:36:21.823Z,14.86
2022-10-01T09:39:03.917Z,14.96
2022-10-01T09:41:31.404Z,15.01
2022-10-01T09:43:57.978Z,14.98
2022-10-01T09:46:26.437Z,14.93
2022-10-01T09:49:05.166Z,14.94
2022-10-01T09:51:42.762Z,15.01
2022-10-01T09:54:37.848Z,15.00
2022-10-01T09:57:32.245Z,15.02
2022-10-01T10:00:20.136Z,14.98
2022-10-01T10:02:49.744Z,14.92
2022-10-01T10:05:26.985Z,14.94
2022-10-01T10:07:54.826Z,14.93
2022-10-01T10:10:29.505Z,14.94
2022-10-01T10:13:13.687Z,14.94
2022-10-01T10:15:50.807Z,14.83
2022-10-01T10:18:27.849Z,14.87
2022-10-01T10:20:55.673Z,14.87
2022-10-01T10:23:29.168Z,14.98
2022-10-01T10:26:03.038Z,14.88
2022-10-01T10:28:43.668Z,15.03
2022-10-01T10:31:15.911Z,15.12
2022-10-01T10:33:52.938Z,15.18
2022-10-01T10:36:21.444Z,15.16
2022-10-01T10:38:50.866Z,15.15
2022-10-01T10:41:25.861Z,15.29
2022-10-01T10:43:56.537Z,15.33
2022-10-01T10:46:29.259Z,15.29
2022-10-01T10:49:31.211Z,15.24
2022-10-01T10:52:00.753Z,15.17
2022-10-01T10:54:41.668Z,15.06
2022-10-01T10:57:21.214Z,15.06
2022-10-01T10:59:59.428Z,15.06
2022-10-01T11:02:30.026Z,15.05
2022-10-01T11:05:03.764Z,15.02
2022-10-01T11:07:31.220Z,15.03
2022-10-01T11:10:22.762Z,15.05
2022-10-01T11:13:08.649Z,15.02
2022-10-01T11:15:43.121Z,15.10
2022-10-01T11:18:35.840Z,15.18
2022-10-01T11:21:30.259Z,15.34
2022-10-01T11:24:35.637Z,15.55
2022-10-01T11:27:27.183Z,15.62
2022-10-01T11:30:20.117Z,15.46
2022-10-01T11:33:10.641Z,15.42
2022-10-01T11:35:44.069Z,15.44
2022-10-01T11:38:37.904Z,15.53
2022-10-01T11:41:20.181Z,15.60
2022-10-01T11:43:54.164Z,15.66
2022-10-01T11:46:59.543Z,15.47
2022-10-01T11:49:26.653Z,15.39
2022-10-01T11:52:23.547Z,15.46
2022-10-01T11:55:21.827Z,15.55
2022-10-01T11:58:26.409Z,15.49
2022-10-01T12:01:18.676Z,15.45
2022-10-01T12:03:54.284Z,15.51
2022-10-01T12:06:29.397Z,15.46
2022-10-01T12:09:17.439Z,15.48
2022-10-01T12:11:49.237Z,15.38
2022-10-01T12:14:20.639Z,15.31
2022-10-01T12:16:56.641Z,15.30
2022-10-01T12:19:34.237Z,15.36
2022-10-01T12:22:11.131Z,15.39
2022-10-01T12:24:42.663Z,15.32
2022-10-01T12:27:14.653Z,15.33
2022-10-01T12:29:52.515Z,15.42
2022-10-01T12:32:48.349Z,15.47
2022-10-01T12:35:47.286Z,15.61
2022-10-01T12:38:31.239Z,15.66
2022-10-01T12:41:29.158Z,15.81
2022-10-01T12:44:49.404Z,15.91
2022-10-01T12:47:27.319Z,15.89
2022-10-01T12:50:05.857Z,15.87
2022-10-01T12:52:44.972Z,15.80
2022-10-01T12:55:22.508Z,15.79
2022-10-01T12:58:16.187Z,15.74
2022-10-01T13:01:03.378Z,15.67
2022-10-01T13:03:59.898Z,15.64
2022-10-01T13:06:46.887Z,15.54
2022-10-01T13:09:35.374Z,15.63
2022-10-01T13:12:44.801Z,15.63
2022-10-01T13:15:20.410Z,15.65
2022-10-01T13:18:00.169Z,15.67
2022-10-01T13:20:41.155Z,15.65
2022-10-01T13:23:28.954Z,15.57
2022-10-01T13:26:10.414Z,15.63
2022-10-01T13:28:47.333Z,15.73
2022-10-01T13:31:18.989Z,15.88
2022-10-01T13:33:56.646Z,15.99
2022-10-01T13:36:32.353Z,16.06
2022-10-01T13:38:59.226Z,16.12
2022-10-01T13:41:29.524Z,16.14
2022-10-01T13:44:04.188Z,16.07
2022-10-01T13:46:36.813Z,15.95
2022-10-01T13:49:15.797Z,15.94
2022-10-01T13:51:45.957Z,16.01
2022-10-01T13:54:23.860Z,16.05
2022-10-01T13:56:50.323Z,16.14
2022-10-01T13:59:37.628Z,16.09
2022-10-01T14:02:28.652Z,16.14
2022-10-01T14:05:04.010Z,16.14
2022-10-01T14:07:35.823Z,16.10
2022-10-01T14:10:02.733Z,16.07
2022-10-01T14:12:50.877Z,16.16
2022-10-01T14:15:39.256Z,16.22
2022-10-01T14:18:16.208Z,16.20
2022-10-01T14:21:01.201Z,16.11
2022-10-01T14:23:39.259Z,15.96
2022-10-01T14:26:18.879Z,15.80
2022-10-01T14:29:17.359Z,15.91
2022-10-01T14:32:05.176Z,15.90
2022-10-01T14:34:43.930Z,15.96
2022-10-01T14:37:17.606Z,15.89
2022-10-01T14:39:44.089Z,15.88
2022-10-01T14:42:17.135Z,15.89
2022-10-01T14:44:46.686Z,15.82
2022-10-01T14:47:21.785Z,15.90
2022-10-01T14:49:48.866Z,15.92
2022-10-01T14:52:31.312Z,15.90
2022-10-01T14:55:02.617Z,15.85
2022-10-01T14:57:37.829Z,15.86
2022-10-01T15:00:13.743Z,15.90
2022-10-01T15:02:51.949Z,15.80
2022-10-01T15:05:30.902Z,15.80
2022-10-01T15:08:02.108Z,15.73
2022-10-01T15:10:31.291Z,15.74
2022-10-01T15:12:58.236Z,15.76
2022-10-01T15:15:29.602Z,15.77
2022-10-01T15:17:56.145Z,15.80
2022-10-01T15:20:23.188Z,15.77
2022-10-01T15:22:58.996Z,15.82
2022-10-01T15:25:30.256Z,15.82
2022-10-01T15:27:56.976Z,15.87
2022-10-01T15:30:26.407Z,15.87
2022-10-01T15:32:53.374Z,15.86
2022-10-01T15:35:22.909Z,15.87
2022-10-01T15:37:52.160Z,15.90
2022-10-01T15:40:30.553Z,15.87
2022-10-01T15:43:23.679Z,15.88
2022-10-01T15:46:04.935Z,15.86
2022-10-01T15:48:32.905Z,15.87
2022-10-01T15:51:03.260Z,15.96
2022-10-01T15:53:30.501Z,16.01
2022-10-01T15:55:59.687Z,16.03
2022-10-01T15:58:31.742Z,16.01
2022-10-01T16:01:13.673Z,16.00
2022-10-01T16:03:53.744Z,15.96
2022-10-01T16:06:27.387Z,15.87
2022-10-01T16:09:16.073Z,15.86
2022-10-01T16:11:57.589Z,15.78
2022-10-01T16:14:55.717Z,15.67
2022-10-01T16:17:27.077Z,15.68
2022-10-01T16:20:00.031Z,15.63
2022-10-01T16:22:32.098Z,15.65
2022-10-01T16:25:22.807Z,15.66
2022-10-01T16:28:03.672Z,15.65
2022-10-01T16:30:31.248Z,15.65
2022-10-01T16:33:00.112Z,15.67
2022-10-01T16:35:29.259Z,15.67
2022-10-01T16:37:57.852Z,15.68
2022-10-01T16:40:29.909Z,15.64
2022-10-01T16:42:58.047Z,15.58
2022-10-01T16:45:27.581Z,15.51
2022-10-01T16:47:56.641Z,15.54
2022-10-01T16:50:23.798Z,15.55
2022-10-01T16:52:55.338Z,15.59
2022-10-01T16:55:27.397Z,15.61
2022-10-01T16:57:54.495Z,15.57
2022-10-01T17:00:22.869Z,15.53
2022-10-01T17:02:52.170Z,15.52
2022-10-01T17:05:30.405Z,15.52
2022-10-01T17:08:05.148Z,15.52
2022-10-01T17:10:36.302Z,15.52
2022-10-01T17:13:03.521Z,15.52
2022-10-01T17:15:30.560Z,15.51
2022-10-01T17:17:58.359Z,15.49
2022-10-01T17:20:28.508Z,15.47
2022-10-01T17:22:55.927Z,15.45
2022-10-01T17:25:31.819Z,15.43
2022-10-01T17:27:59.567Z,15.41
2022-10-01T17:30:29.112Z,15.36
2022-10-01T17:32:56.891Z,15.32
2022-10-01T17:35:23.464Z,15.30
2022-10-01T17:37:49.853Z,15.29
2022-10-01T17:40:16.768Z,15.27
2022-10-01T17:42:43.165Z,15.24
2022-10-01T17:45:12.085Z,15.21
2022-10-01T17:47:46.416Z,15.18
2022-10-01T17:50:13.391Z,15.17
2022-10-01T17:52:39.991Z,15.16
2022-10-01T17:55:07.220Z,15.13
2022-10-01T17:57:34.062Z,15.12
2022-10-01T18:00:00.556Z,15.09
2022-10-01T18:02:41.423Z,15.07
2022-10-01T18:05:12.279Z,15.04
2022-10-01T18:07:38.949Z,14.99
2022-10-01T18:10:07.432Z,14.95
2022-10-01T18:12:34.402Z,14.91
2022-10-01T18:15:01.649Z,14.86
2022-10-01T18:17:28.005Z,14.84
2022-10-01T18:19:54.696Z,14.79
2022-10-01T18:22:21.537Z,14.77
2022-10-01T18:24:47.944Z,14.75
2022-10-01T18:27:14.486Z,14.72
2022-10-01T18:29:40.896Z,14.73
2022-10-01T18:32:20.625Z,14.70
2022-10-01T18:34:57.664Z,14.67
2022-10-01T18:37:36.308Z,14.65
2022-10-01T18:40:19.897Z,14.64
2022-10-01T18:43:13.592Z,14.63
2022-10-01T18:46:17.715Z,14.60
2022-10-01T18:48:58.535Z,14.58
2022-10-01T18:51:54.939Z,14.56
2022-10-01T18:54:55.634Z,14.55
2022-10-01T18:57:33.995Z,14.54
2022-10-01T19:00:10.659Z,14.53
2022-10-01T19:02:56.826Z,14.52
2022-10-01T19:05:51.304Z,14.54
2022-10-01T19:09:02.370Z,14.55
2022-10-01T19:12:01.365Z,14.56
2022-10-01T19:14:57.685Z,14.57
2022-10-01T19:17:23.961Z,14.58
2022-10-01T19:19:53.226Z,14.59
2022-10-01T19:22:47.578Z,14.60
2022-10-01T19:25:27.033Z,14.58
2022-10-01T19:28:35.361Z,14.59
2022-10-01T19:31:50.168Z,14.57
2022-10-01T19:34:31.301Z,14.55
2022-10-01T19:37:22.686Z,14.54
2022-10-01T19:39:52.282Z,14.56
2022-10-01T19:42:25.679Z,14.57
2022-10-01T19:44:54.636Z,14.57
2022-10-01T19:47:36.197Z,14.59
2022-10-01T19:50:12.801Z,14.57
2022-10-01T19:52:42.544Z,14.56
2022-10-01T19:55:16.154Z,14.55
2022-10-01T19:57:44.598Z,14.54
2022-10-01T20:00:19.174Z,14.53
2022-10-01T20:03:09.795Z,14.50
2022-10-01T20:05:49.568Z,14.48
2022-10-01T20:08:29.465Z,14.45
2022-10-01T20:11:02.710Z,14.44
2022-10-01T20:14:00.064Z,14.44
2022-10-01T20:16:50.345Z,14.42
2022-10-01T20:19:27.233Z,14.41
2022-10-01T20:22:07.559Z,14.39
2022-10-01T20:24:49.512Z,14.39
2022-10-01T20:27:27.900Z,14.39
2022-10-01T20:30:14.574Z,14.33
2022-10-01T20:32:56.018Z,14.28
2022-10-01T20:36:03.874Z,14.28
2022-10-01T20:39:04.519Z,14.28
2022-10-01T20:41:43.739Z,14.26
2022-10-01T20:44:15.710Z,14.26
2022-10-01T20:46:58.185Z,14.24
2022-10-01T20:50:09.566Z,14.21
2022-10-01T20:52:55.550Z,14.18
2022-10-01T20:55:29.123Z,14.16
2022-10-01T20:58:00.138Z,14.14
2022-10-01T21:00:28.343Z,14.14
2022-10-01T21:03:17.826Z,14.10
2022-10-01T21:05:49.123Z,14.06
2022-10-01T21:08:27.342Z,14.06
2022-10-01T21:10:57.829Z,14.04
2022-10-01T21:13:33.245Z,14.05
2022-10-01T21:16:11.801Z,14.08
2022-10-01T21:19:02.817Z,14.10
2022-10-01T21:21:55.577Z,14.10
2022-10-01T21:24:53.322Z,14.10
2022-10-01T21:27:34.003Z,14.09
2022-10-01T21:30:17.529Z,14.12
2022-10-01T21:33:11.610Z,14.11
2022-10-01T21:36:02.437Z,14.09
2022-10-01T21:38:43.964Z,14.05
2022-10-01T21:41:28.816Z,14.06
2022-10-01T21:44:22.333Z,14.03
2022-10-01T21:47:26.016Z,14.01
2022-10-01T21:50:09.489Z,14.03
2022-10-01T21:52:45.384Z,14.04
2022-10-01T21:55:56.976Z,14.07
2022-10-01T21:58:37.586Z,14.08
2022-10-01T22:01:16.225Z,14.11
2022-10-01T22:04:03.061Z,14.13
2022-10-01T22:06:31.805Z,14.09
2022-10-01T22:09:18.694Z,14.07
2022-10-01T22:11:53.567Z,14.08
2022-10-01T22:14:21.591Z,14.11
2022-10-01T22:17:11.456Z,14.13
2022-10-01T22:19:42.962Z,14.14
2022-10-01T22:22:13.270Z,14.16
2022-10-01T22:24:47.626Z,14.15
2022-10-01T22:27:26.420Z,14.14
2022-10-01T22:30:00.145Z,14.12
2022-10-01T22:32:33.121Z,14.10
2022-10-01T22:35:04.629Z,14.10
2022-10-01T22:37:36.715Z,14.07
2022-10-01T22:40:09.896Z,14.07
2022-10-01T22:42:44.661Z,14.07
2022-10-01T22:45:17.520Z,14.05
2022-10-01T22:47:52.801Z,14.04
2022-10-01T22:50:47.633Z,14.03
2022-10-01T22:53:23.509Z,14.03
2022-10-01T22:55:53.034Z,14.01
2022-10-01T22:58:32.457Z,13.99
2022-10-01T23:01:29.283Z,13.98
2022-10-01T23:04:19.679Z,13.97
2022-10-01T23:07:09.172Z,13.92
2022-10-01T23:09:47.117Z,13.93
2022-10-01T23:12:50.095Z,13.88
2022-10-01T23:15:47.584Z,13.88
2022-10-01T23:18:41.551Z,13.87
2022-10-01T23:21:26.669Z,13.84
2022-10-01T23:24:31.663Z,13.78
2022-10-01T23:27:08.726Z,13.74
2022-10-01T23:30:01.891Z,13.72
2022-10-01T23:32:55.809Z,13.73
2022-10-01T23:35:34.706Z,13.70
2022-10-01T23:38:12.614Z,13.57
2022-10-01T23:40:42.081Z,13.49
2022-10-01T23:43:30.881Z,13.45
2022-10-01T23:46:05.077Z,13.45
2022-10-01T23:48:42.729Z,13.43
2022-10-01T23:51:38.068Z,13.46
2022-10-01T23:54:38.500Z,13.53
2022-10-01T23:57:21.536Z,13.56
2022-10-01T23:59:55.101Z,13.58
